createdAt,value
2023-05-06T04:39:15.180Z,24.79
2023-05-06T04:41:41.655Z,24.90
2023-05-06T04:44:08.223Z,24.77
2023-05-06T04:46:34.744Z,24.77
2023-05-06T04:49:01.323Z,24.94
2023-05-06T04:51:27.814Z,24.98
2023-05-06T04:53:54.225Z,24.90
2023-05-06T04:56:20.708Z,24.97
2023-05-06T04:58:47.172Z,25.02
2023-05-06T05:01:13.730Z,24.91
2023-05-06T05:03:40.257Z,24.96
2023-05-06T05:06:06.672Z,24.92
2023-05-06T05:08:33.229Z,25.01
2023-05-06T05:10:59.710Z,24.84
2023-05-06T05:13:26.173Z,24.91
2023-05-06T05:15:52.619Z,24.91
2023-05-06T05:18:19.048Z,24.89
2023-05-06T05:20:45.490Z,24.83
2023-05-06T05:23:11.899Z,24.76
2023-05-06T05:25:38.419Z,24.72
2023-05-06T05:28:04.972Z,24.79
2023-05-06T05:30:31.408Z,24.87
2023-05-06T05:32:57.990Z,24.92
2023-05-06T05:35:24.525Z,24.89
2023-05-06T05:37:50.960Z,24.87
2023-05-06T05:40:17.430Z,24.91
2023-05-06T05:42:44.013Z,24.81
2023-05-06T05:45:10.657Z,24.93
2023-05-06T05:47:37.270Z,24.89
2023-05-06T05:50:03.755Z,24.93
2023-05-06T05:52:30.264Z,24.84
2023-05-06T05:54:56.726Z,24.73
2023-05-06T05:57:23.268Z,24.87
2023-05-06T05:59:49.936Z,24.95
2023-05-06T06:02:16.388Z,25.12
2023-05-06T06:04:42.933Z,25.15
2023-05-06T06:07:12.438Z,24.97
2023-05-06T06:09:38.945Z,24.99
2023-05-06T06:12:05.390Z,25.01
2023-05-06T06:14:31.890Z,24.96
2023-05-06T06:16:58.361Z,24.85
2023-05-06T06:19:24.823Z,24.86
2023-05-06T06:21:51.228Z,25.00
2023-05-06T06:24:17.698Z,24.76
2023-05-06T06:26:44.112Z,24.82
2023-05-06T06:29:10.552Z,24.95
2023-05-06T06:31:39.022Z,24.96
2023-05-06T06:34:06.908Z,24.99
2023-05-06T06:36:33.477Z,24.93
2023-05-06T06:38:59.903Z,25.04
2023-05-06T06:41:26.356Z,25.09
2023-05-06T06:43:52.797Z,25.00
2023-05-06T06:46:19.401Z,24.83
2023-05-06T06:48:45.874Z,24.89
2023-05-06T06:51:12.333Z,25.12
2023-05-06T06:53:38.786Z,25.07
2023-05-06T06:56:05.225Z,25.12
2023-05-06T06:58:33.442Z,25.19
2023-05-06T07:01:00.995Z,25.26
2023-05-06T07:03:27.672Z,25.41
2023-05-06T07:05:54.174Z,25.19
2023-05-06T07:08:20.674Z,25.29
2023-05-06T07:10:47.193Z,25.16
2023-05-06T07:13:13.750Z,25.39
2023-05-06T07:15:40.281Z,25.24
2023-05-06T07:18:06.838Z,25.09
2023-05-06T07:20:33.369Z,25.08
2023-05-06T07:22:59.787Z,25.13
2023-05-06T07:25:26.318Z,25.25
2023-05-06T07:27:52.784Z,25.37
2023-05-06T07:30:20.482Z,25.47
2023-05-06T07:32:48.942Z,25.28
2023-05-06T07:35:15.490Z,25.27
2023-05-06T07:37:42.035Z,25.25
2023-05-06T07:40:08.555Z,25.15
2023-05-06T07:42:34.981Z,25.23
2023-05-06T07:45:01.436Z,25.29
2023-05-06T07:47:27.981Z,25.09
2023-05-06T07:49:54.527Z,25.15
2023-05-06T07:52:21.060Z,25.23
2023-05-06T07:54:47.529Z,25.06
2023-05-06T07:57:15.122Z,25.10
2023-05-06T07:59:41.536Z,25.19
2023-05-06T08:02:08.044Z,25.32
2023-05-06T08:04:34.575Z,25.30
2023-05-06T08:07:01.070Z,25.21
2023-05-06T08:09:27.526Z,25.25
2023-05-06T08:11:54.043Z,25.15
2023-05-06T08:14:20.592Z,25.31
2023-05-06T08:16:47.109Z,25.46
2023-05-06T08:19:16.096Z,25.38
2023-05-06T08:21:42.561Z,25.28
2023-05-06T08:24:08.973Z,25.36
2023-05-06T08:26:35.404Z,25.40
2023-05-06T08:29:01.853Z,25.24
2023-05-06T08:31:28.359Z,25.30
2023-05-06T08:33:55.100Z,25.34
2023-05-06T08:36:21.661Z,25.34
2023-05-06T08:38:48.096Z,25.33
2023-05-06T08:41:14.507Z,25.32
2023-05-06T08:43:40.930Z,25.39
2023-05-06T08:46:07.411Z,25.30
2023-05-06T08:48:33.936Z,25.26
2023-05-06T08:51:00.410Z,25.28
2023-05-06T08:53:26.906Z,25.32
2023-05-06T08:55:53.421Z,25.35
2023-05-06T08:58:19.995Z,25.40
2023-05-06T09:00:46.616Z,25.42
2023-05-06T09:03:13.229Z,25.40
2023-05-06T09:05:39.744Z,25.39
2023-05-06T09:08:06.250Z,25.37
2023-05-06T09:10:32.715Z,25.32
2023-05-06T09:12:59.318Z,25.38
2023-05-06T09:15:25.762Z,25.35
2023-05-06T09:17:54.535Z,25.34
2023-05-06T09:20:20.978Z,25.42
2023-05-06T09:22:47.505Z,25.27
2023-05-06T09:25:14.164Z,25.38
2023-05-06T09:27:40.662Z,25.31
2023-05-06T09:30:07.275Z,25.39
2023-05-06T09:32:34.035Z,25.40
2023-05-06T09:35:00.660Z,25.35
2023-05-06T09:37:27.281Z,25.50
2023-05-06T09:39:53.699Z,25.49
2023-05-06T09:42:20.131Z,25.39
2023-05-06T09:44:46.610Z,25.45
2023-05-06T09:47:13.020Z,25.60
2023-05-06T09:49:39.543Z,25.49
2023-05-06T09:52:06.050Z,25.52
2023-05-06T09:54:32.624Z,25.28
2023-05-06T09:57:00.956Z,25.45
2023-05-06T09:59:27.642Z,25.55
2023-05-06T10:01:54.346Z,25.63
2023-05-06T10:04:21.778Z,25.52
2023-05-06T10:06:49.729Z,25.56
2023-05-06T10:09:16.271Z,25.59
2023-05-06T10:11:42.809Z,25.64
2023-05-06T10:14:09.352Z,25.62
2023-05-06T10:16:35.978Z,25.61
2023-05-06T10:19:02.503Z,25.60
2023-05-06T10:21:29.043Z,25.68
2023-05-06T10:23:55.518Z,25.71
2023-05-06T10:26:22.033Z,25.73
2023-05-06T10:28:48.615Z,25.71
2023-05-06T10:31:15.145Z,25.77
2023-05-06T10:33:42.453Z,25.78
2023-05-06T10:36:09.076Z,25.76
2023-05-06T10:38:35.627Z,25.75
2023-05-06T10:41:02.528Z,25.74
2023-05-06T10:43:28.998Z,25.77
2023-05-06T10:45:55.572Z,25.67
2023-05-06T10:48:22.105Z,25.72
2023-05-06T10:50:48.642Z,25.71
2023-05-06T10:53:15.115Z,25.71
2023-05-06T10:55:41.568Z,25.75
2023-05-06T10:58:08.131Z,25.67
2023-05-06T11:00:34.668Z,25.72
2023-05-06T11:03:01.281Z,25.70
2023-05-06T11:05:27.819Z,25.66
2023-05-06T11:07:54.260Z,25.74
2023-05-06T11:10:20.697Z,25.61
2023-05-06T11:12:49.929Z,25.70
2023-05-06T11:15:16.652Z,25.66
2023-05-06T11:17:43.226Z,25.63
2023-05-06T11:20:09.954Z,25.70
2023-05-06T11:22:36.551Z,25.67
2023-05-06T11:25:03.011Z,25.61
2023-05-06T11:27:29.496Z,25.68
2023-05-06T11:29:55.930Z,25.56
2023-05-06T11:32:22.444Z,25.69
2023-05-06T11:34:49.047Z,25.74
2023-05-06T11:37:15.548Z,25.74
2023-05-06T11:39:42.020Z,25.77
2023-05-06T11:42:08.531Z,25.80
2023-05-06T11:44:34.994Z,25.79
2023-05-06T11:47:01.651Z,25.81
2023-05-06T11:49:28.144Z,25.83
2023-05-06T11:51:54.678Z,25.84
2023-05-06T11:54:21.211Z,25.82
2023-05-06T11:56:47.739Z,25.80
2023-05-06T11:59:14.183Z,25.85
2023-05-06T12:01:43.718Z,25.82
2023-05-06T12:04:10.455Z,25.79
2023-05-06T12:06:37.028Z,25.82
2023-05-06T12:09:03.505Z,25.83
2023-05-06T12:11:30.038Z,25.80
2023-05-06T12:13:56.622Z,25.80
2023-05-06T12:16:23.204Z,25.82
2023-05-06T12:18:51.635Z,25.83
2023-05-06T12:21:18.202Z,25.83
2023-05-06T12:23:44.708Z,25.85
2023-05-06T12:26:11.267Z,25.87
2023-05-06T12:28:37.815Z,25.89
2023-05-06T12:31:04.445Z,25.89
2023-05-06T12:33:31.002Z,25.88
2023-05-06T12:35:57.527Z,25.90
2023-05-06T12:38:23.978Z,25.93
2023-05-06T12:40:50.477Z,25.92
2023-05-06T12:43:16.961Z,25.94
2023-05-06T12:45:43.503Z,25.96
2023-05-06T12:48:10.111Z,26.02
2023-05-06T12:50:36.664Z,26.03
2023-05-06T12:53:03.183Z,26.02
2023-05-06T12:55:29.631Z,26.08
2023-05-06T12:57:57.793Z,26.14
2023-05-06T13:00:24.485Z,26.10
2023-05-06T13:02:51.135Z,26.17
2023-05-06T13:05:18.784Z,26.16
2023-05-06T13:07:45.390Z,26.16
2023-05-06T13:10:12.120Z,26.23
2023-05-06T13:12:38.862Z,26.33
2023-05-06T13:15:05.413Z,26.27
2023-05-06T13:17:32.005Z,26.43
2023-05-06T13:19:58.510Z,26.37
2023-05-06T13:22:28.036Z,26.39
2023-05-06T13:24:54.515Z,26.22
2023-05-06T13:27:21.029Z,26.32
2023-05-06T13:29:47.509Z,26.58
2023-05-06T13:32:14.081Z,26.58
2023-05-06T13:34:40.575Z,26.55
2023-05-06T13:37:07.052Z,26.52
2023-05-06T13:39:36.046Z,26.50
2023-05-06T13:42:02.542Z,26.35
2023-05-06T13:44:29.119Z,26.42
2023-05-06T13:46:55.651Z,26.59
2023-05-06T13:49:22.191Z,26.47
2023-05-06T13:51:48.706Z,26.43
2023-05-06T13:54:15.239Z,26.69
2023-05-06T13:56:41.853Z,26.95
2023-05-06T13:59:08.836Z,26.50
2023-05-06T14:01:35.638Z,26.89
2023-05-06T14:04:02.138Z,26.74
2023-05-06T14:06:28.598Z,26.54
2023-05-06T14:08:55.046Z,26.54
2023-05-06T14:11:21.589Z,26.37
2023-05-06T14:13:48.041Z,26.40
2023-05-06T14:16:14.523Z,26.12
2023-05-06T14:18:41.008Z,26.09
2023-05-06T14:21:07.521Z,26.19
2023-05-06T14:23:34.080Z,26.08
2023-05-06T14:26:00.606Z,25.88
2023-05-06T14:28:27.077Z,25.89
2023-05-06T14:30:53.626Z,25.92
2023-05-06T14:33:20.208Z,25.87
2023-05-06T14:35:46.717Z,25.80
2023-05-06T14:38:13.147Z,25.77
2023-05-06T14:40:39.689Z,25.78
2023-05-06T14:43:06.136Z,25.78
2023-05-06T14:45:32.681Z,25.85
2023-05-06T14:47:59.179Z,25.77
2023-05-06T14:50:25.771Z,25.85
2023-05-06T14:52:52.253Z,25.95
2023-05-06T14:55:18.717Z,25.91
2023-05-06T14:57:45.235Z,25.86
2023-05-06T15:00:11.720Z,25.89
2023-05-06T15:02:38.310Z,25.98
2023-05-06T15:05:04.952Z,25.87
2023-05-06T15:07:31.450Z,25.80
2023-05-06T15:09:57.998Z,25.78
2023-05-06T15:12:24.460Z,25.79
2023-05-06T15:14:50.928Z,25.86
2023-05-06T15:17:17.413Z,25.88
2023-05-06T15:19:43.861Z,25.93
2023-05-06T15:22:10.328Z,26.13
2023-05-06T15:24:36.926Z,26.30
2023-05-06T15:27:03.460Z,26.52
2023-05-06T15:29:29.979Z,27.21
2023-05-06T15:31:56.526Z,27.40
2023-05-06T15:34:23.080Z,27.31
2023-05-06T15:36:49.601Z,27.07
2023-05-06T15:39:16.086Z,26.67
2023-05-06T15:41:42.655Z,26.58
2023-05-06T15:44:09.925Z,26.85
2023-05-06T15:46:36.695Z,26.51
2023-05-06T15:49:32.016Z,26.47
2023-05-06T15:51:49.624Z,26.54
2023-05-06T15:54:16.130Z,26.43
2023-05-06T15:56:42.729Z,26.45
2023-05-06T15:59:09.196Z,26.47
2023-05-06T16:02:16.545Z,26.48
2023-05-06T16:04:22.270Z,26.42
2023-05-06T16:06:48.880Z,26.63
2023-05-06T16:09:15.351Z,27.29
2023-05-06T16:11:41.918Z,27.57
2023-05-06T16:14:08.421Z,27.71
2023-05-06T16:16:35.042Z,27.89
2023-05-06T16:19:01.627Z,28.03
2023-05-06T16:21:28.167Z,27.73
2023-05-06T16:23:54.674Z,27.79
2023-05-06T16:26:21.124Z,27.73
2023-05-06T16:28:47.636Z,27.80
2023-05-06T16:31:14.083Z,28.07
2023-05-06T16:33:40.533Z,28.23
2023-05-06T16:36:07.770Z,28.12
2023-05-06T16:38:34.530Z,27.92
2023-05-06T16:41:01.037Z,27.73
2023-05-06T16:43:27.803Z,27.60
2023-05-06T16:45:54.273Z,27.34
2023-05-06T16:48:21.154Z,27.29
2023-05-06T16:50:47.679Z,27.19
2023-05-06T16:53:14.204Z,27.16
2023-05-06T16:55:40.637Z,26.99
2023-05-06T16:58:07.134Z,27.13
2023-05-06T17:00:33.990Z,27.12
2023-05-06T17:03:00.705Z,26.96
2023-05-06T17:05:27.325Z,26.88
2023-05-06T17:07:54.193Z,26.77
2023-05-06T17:10:21.296Z,26.76
2023-05-06T17:12:47.747Z,26.68
2023-05-06T17:15:14.318Z,26.62
2023-05-06T17:17:40.972Z,26.46
2023-05-06T17:20:07.462Z,26.42
2023-05-06T17:22:33.976Z,26.51
2023-05-06T17:25:00.524Z,26.44
2023-05-06T17:27:27.002Z,26.48
2023-05-06T17:29:53.545Z,26.62
2023-05-06T17:32:20.130Z,26.50
2023-05-06T17:34:46.644Z,26.60
2023-05-06T17:37:13.098Z,26.59
2023-05-06T17:39:39.589Z,26.49
2023-05-06T17:42:06.096Z,26.32
2023-05-06T17:44:32.578Z,26.26
2023-05-06T17:46:59.184Z,26.29
2023-05-06T17:49:25.728Z,26.29
2023-05-06T17:51:52.249Z,26.34
2023-05-06T17:54:18.697Z,26.37
2023-05-06T17:56:45.197Z,26.28
2023-05-06T17:59:11.670Z,26.30
2023-05-06T18:01:38.269Z,26.21
2023-05-06T18:04:04.979Z,26.31
2023-05-06T18:06:31.605Z,26.35
2023-05-06T18:08:58.088Z,26.34
2023-05-06T18:11:24.582Z,26.27
2023-05-06T18:13:51.140Z,26.26
2023-05-06T18:16:17.722Z,26.23
2023-05-06T18:18:44.327Z,26.10
2023-05-06T18:21:10.802Z,26.18
2023-05-06T18:23:37.382Z,26.21
2023-05-06T18:26:03.925Z,26.19
2023-05-06T18:28:30.418Z,26.13
2023-05-06T18:30:57.057Z,26.15
2023-05-06T18:33:23.557Z,26.11
2023-05-06T18:35:50.061Z,26.07
2023-05-06T18:38:16.597Z,26.08
2023-05-06T18:40:43.162Z,26.03
2023-05-06T18:43:09.709Z,25.91
2023-05-06T18:45:36.326Z,25.88
2023-05-06T18:48:02.899Z,25.85
2023-05-06T18:50:29.351Z,25.88
2023-05-06T18:52:55.916Z,25.82
2023-05-06T18:55:22.449Z,25.82
2023-05-06T18:57:49.012Z,25.83
2023-05-06T19:00:15.520Z,25.79
2023-05-06T19:02:42.165Z,25.79
2023-05-06T20:36:00.654Z,25.46
2023-05-06T20:38:27.173Z,25.47
2023-05-06T20:40:53.736Z,25.55
2023-05-06T20:43:20.219Z,25.59
2023-05-06T20:45:46.813Z,25.62
2023-05-06T20:48:15.063Z,25.58
2023-05-06T20:50:41.851Z,25.60
2023-05-06T21:32:52.519Z,25.35
